WMT1MP LATI-EKBI
Flight info
| Callsign | WMT1MP |
|---|---|
| Flight time | 2h 27m |
| Altitude | 36000 |
| Route | INLOT L604 POD DCT NILKU DCT KEB DCT NENUM DCT RUDNO DCT TABAT DCT EKERN DCT BEVRA |
| Aircraft | A321/M-SDE1E2E3FGIJ1J4RWXY/LB1 |
Departure
| Time | 2026-05-04 19:43 |
|---|---|
| Airport | Tirana International Airport Mother Teresa (LATI) |
Arrival
| Time | 2026-05-04 22:11 |
|---|---|
| Airport | Billund Airport (EKBI) |
| Time | Latitude | Longitude | Altitude | Speed | Heading |
|---|---|---|---|---|---|
| 2026-05-04 19:26 | 41.42028 | 19.71504 | 119 ft | 0 kts | 265° |
| 2026-05-04 19:34 | 41.42032 | 19.71533 | 118 ft | 4 kts | 247° |
| 2026-05-04 19:34 | 41.42046 | 19.71559 | 114 ft | 4 kts | 202° |
| 2026-05-04 19:35 | 41.42063 | 19.71563 | 114 ft | 0 kts | 169° |
| 2026-05-04 19:38 | 41.42054 | 19.71565 | 115 ft | 5 kts | 169° |
| 2026-05-04 19:38 | 41.41999 | 19.71579 | 115 ft | 10 kts | 169° |
| 2026-05-04 19:39 | 41.41919 | 19.71585 | 118 ft | 15 kts | 177° |
| 2026-05-04 19:39 | 41.41803 | 19.71599 | 117 ft | 17 kts | 175° |
| 2026-05-04 19:39 | 41.41680 | 19.71615 | 119 ft | 18 kts | 174° |
| 2026-05-04 19:39 | 41.41553 | 19.71631 | 122 ft | 19 kts | 174° |
| 2026-05-04 19:40 | 41.41425 | 19.71650 | 123 ft | 19 kts | 174° |
| 2026-05-04 19:40 | 41.41292 | 19.71666 | 123 ft | 19 kts | 175° |
| 2026-05-04 19:40 | 41.41156 | 19.71683 | 124 ft | 20 kts | 173° |
| 2026-05-04 19:40 | 41.41016 | 19.71703 | 122 ft | 20 kts | 174° |
| 2026-05-04 19:41 | 41.40874 | 19.71734 | 124 ft | 21 kts | 170° |
| 2026-05-04 19:41 | 41.40729 | 19.71762 | 126 ft | 21 kts | 173° |
| 2026-05-04 19:41 | 41.40649 | 19.71783 | 125 ft | 8 kts | 149° |
| 2026-05-04 19:41 | 41.40638 | 19.71850 | 125 ft | 8 kts | 79° |
| 2026-05-04 19:42 | 41.40652 | 19.71939 | 123 ft | 12 kts | 78° |
| 2026-05-04 19:42 | 41.40672 | 19.72058 | 127 ft | 14 kts | 78° |
| 2026-05-04 19:42 | 41.40691 | 19.72153 | 128 ft | 6 kts | 37° |
| 2026-05-04 19:42 | 41.40755 | 19.72148 | 127 ft | 28 kts | 355° |
| 2026-05-04 19:43 | 41.41237 | 19.72086 | 123 ft | 108 kts | 354° |
| 2026-05-04 19:43 | 41.42198 | 19.71955 | 175 ft | 162 kts | 354° |
| 2026-05-04 19:43 | 41.43315 | 19.71817 | 904 ft | 162 kts | 354° |
| 2026-05-04 19:43 | 41.44446 | 19.71683 | 1608 ft | 165 kts | 355° |
| 2026-05-04 19:44 | 41.45647 | 19.71567 | 1967 ft | 184 kts | 356° |
| 2026-05-04 19:44 | 41.47005 | 19.71440 | 2259 ft | 207 kts | 356° |
| 2026-05-04 19:44 | 41.48522 | 19.71294 | 2490 ft | 231 kts | 356° |
| 2026-05-04 19:44 | 41.50215 | 19.71123 | 2884 ft | 255 kts | 355° |
| 2026-05-04 19:45 | 41.52011 | 19.70934 | 3635 ft | 261 kts | 355° |
| 2026-05-04 19:45 | 41.53831 | 19.70738 | 4522 ft | 264 kts | 356° |
| 2026-05-04 19:45 | 41.55664 | 19.70473 | 5381 ft | 267 kts | 349° |
| 2026-05-04 19:45 | 41.57446 | 19.69728 | 6221 ft | 271 kts | 339° |
| 2026-05-04 19:46 | 41.59175 | 19.68698 | 7041 ft | 274 kts | 336° |
| 2026-05-04 19:46 | 41.60892 | 19.67575 | 7867 ft | 276 kts | 335° |
| 2026-05-04 19:46 | 41.62623 | 19.66438 | 8709 ft | 278 kts | 336° |
| 2026-05-04 19:46 | 41.64373 | 19.65314 | 9560 ft | 280 kts | 337° |
| 2026-05-04 19:47 | 41.66149 | 19.64206 | 10307 ft | 286 kts | 338° |
| 2026-05-04 19:47 | 41.68035 | 19.63064 | 10550 ft | 309 kts | 338° |
| 2026-05-04 19:47 | 41.70059 | 19.61859 | 10925 ft | 324 kts | 338° |
| 2026-05-04 19:47 | 41.72137 | 19.60627 | 11630 ft | 328 kts | 338° |
| 2026-05-04 19:48 | 41.74237 | 19.59387 | 12360 ft | 332 kts | 339° |
| 2026-05-04 19:48 | 41.76358 | 19.58138 | 13121 ft | 334 kts | 339° |
| 2026-05-04 19:48 | 41.78491 | 19.56878 | 13874 ft | 336 kts | 339° |
| 2026-05-04 19:48 | 41.80636 | 19.55606 | 14558 ft | 339 kts | 339° |
| 2026-05-04 19:49 | 41.82800 | 19.54320 | 15221 ft | 341 kts | 338° |
| 2026-05-04 19:49 | 41.84978 | 19.53025 | 15858 ft | 344 kts | 338° |
| 2026-05-04 19:49 | 41.87178 | 19.51714 | 16547 ft | 347 kts | 338° |
| 2026-05-04 19:49 | 41.89395 | 19.50394 | 17231 ft | 350 kts | 338° |
| 2026-05-04 19:50 | 41.91631 | 19.49066 | 17888 ft | 353 kts | 338° |
| 2026-05-04 19:50 | 41.93886 | 19.47726 | 18519 ft | 356 kts | 338° |
| 2026-05-04 19:50 | 41.96159 | 19.46375 | 19068 ft | 359 kts | 338° |
| 2026-05-04 19:50 | 41.98464 | 19.45021 | 19581 ft | 363 kts | 339° |
| 2026-05-04 19:51 | 42.00825 | 19.43783 | 20147 ft | 366 kts | 341° |
| 2026-05-04 19:51 | 42.03231 | 19.42636 | 20727 ft | 368 kts | 342° |
| 2026-05-04 19:51 | 42.05664 | 19.41532 | 21307 ft | 370 kts | 342° |
| 2026-05-04 19:51 | 42.08114 | 19.40429 | 21902 ft | 373 kts | 342° |
| 2026-05-04 19:52 | 42.10580 | 19.39306 | 22480 ft | 375 kts | 342° |
| 2026-05-04 19:52 | 42.13056 | 19.38157 | 23054 ft | 378 kts | 341° |
| 2026-05-04 19:52 | 42.15546 | 19.36986 | 23607 ft | 380 kts | 341° |
| 2026-05-04 19:52 | 42.18049 | 19.35794 | 24045 ft | 383 kts | 341° |
| 2026-05-04 19:53 | 42.20573 | 19.34584 | 24480 ft | 386 kts | 341° |
| 2026-05-04 19:53 | 42.23110 | 19.33364 | 24918 ft | 389 kts | 341° |
| 2026-05-04 19:53 | 42.25622 | 19.32130 | 25351 ft | 391 kts | 340° |
| 2026-05-04 19:53 | 42.28210 | 19.30818 | 25791 ft | 393 kts | 340° |
| 2026-05-04 19:54 | 42.30770 | 19.29498 | 26217 ft | 395 kts | 339° |
| 2026-05-04 19:54 | 42.33308 | 19.28181 | 26635 ft | 397 kts | 339° |
| 2026-05-04 19:54 | 42.35051 | 19.27277 | 26915 ft | 398 kts | 339° |
| 2026-05-04 19:54 | 42.37648 | 19.25936 | 27325 ft | 400 kts | 339° |
| 2026-05-04 19:55 | 42.41102 | 19.24120 | 27838 ft | 404 kts | 338° |
| 2026-05-04 19:55 | 42.43707 | 19.22662 | 28228 ft | 407 kts | 338° |
| 2026-05-04 19:55 | 42.45471 | 19.21645 | 28489 ft | 408 kts | 337° |
| 2026-05-04 19:55 | 42.48933 | 19.19624 | 29009 ft | 411 kts | 337° |
| 2026-05-04 19:56 | 42.50711 | 19.18588 | 29271 ft | 412 kts | 337° |
| 2026-05-04 19:56 | 42.53356 | 19.17056 | 29641 ft | 414 kts | 337° |
| 2026-05-04 19:56 | 42.56019 | 19.15526 | 30009 ft | 417 kts | 337° |
| 2026-05-04 19:56 | 42.58695 | 19.13998 | 30329 ft | 419 kts | 337° |
| 2026-05-04 19:57 | 42.61390 | 19.12462 | 30613 ft | 421 kts | 337° |
| 2026-05-04 19:57 | 42.64097 | 19.10915 | 30876 ft | 423 kts | 337° |
| 2026-05-04 19:57 | 42.66818 | 19.09357 | 31186 ft | 425 kts | 337° |
| 2026-05-04 19:57 | 42.69551 | 19.07789 | 31520 ft | 427 kts | 337° |
| 2026-05-04 19:58 | 42.72251 | 19.06242 | 31926 ft | 426 kts | 337° |
| 2026-05-04 19:58 | 42.74975 | 19.04680 | 32390 ft | 424 kts | 337° |
| 2026-05-04 19:58 | 42.77691 | 19.03117 | 32849 ft | 423 kts | 337° |
| 2026-05-04 19:58 | 42.80391 | 19.01558 | 33290 ft | 421 kts | 336° |
| 2026-05-04 19:59 | 42.83086 | 19.00001 | 33742 ft | 420 kts | 337° |
| 2026-05-04 19:59 | 42.85770 | 18.98450 | 34172 ft | 418 kts | 337° |
| 2026-05-04 19:59 | 42.88447 | 18.96904 | 34545 ft | 417 kts | 336° |
| 2026-05-04 19:59 | 42.91119 | 18.95358 | 34887 ft | 417 kts | 336° |
| 2026-05-04 20:00 | 42.93788 | 18.93816 | 35199 ft | 417 kts | 336° |
| 2026-05-04 20:00 | 42.95595 | 18.92772 | 35407 ft | 417 kts | 336° |
| 2026-05-04 20:00 | 42.97746 | 18.91529 | 35684 ft | 416 kts | 336° |
| 2026-05-04 20:00 | 43.00414 | 18.89983 | 36017 ft | 416 kts | 336° |
| 2026-05-04 20:01 | 43.03082 | 18.88439 | 36118 ft | 415 kts | 336° |
| 2026-05-04 20:01 | 43.08374 | 18.85367 | 36130 ft | 412 kts | 336° |
| 2026-05-04 20:02 | 43.13641 | 18.82301 | 36131 ft | 411 kts | 336° |
| 2026-05-04 20:02 | 43.18907 | 18.79231 | 36132 ft | 411 kts | 336° |
| 2026-05-04 20:03 | 43.24175 | 18.76148 | 36129 ft | 412 kts | 336° |
| 2026-05-04 20:03 | 43.29461 | 18.73055 | 36124 ft | 413 kts | 336° |
| 2026-05-04 20:04 | 43.34756 | 18.69969 | 36132 ft | 414 kts | 339° |
| 2026-05-04 20:04 | 43.40245 | 18.67604 | 36131 ft | 413 kts | 342° |
| 2026-05-04 20:05 | 43.45744 | 18.65267 | 36129 ft | 414 kts | 342° |
| 2026-05-04 20:05 | 43.51245 | 18.62931 | 36127 ft | 414 kts | 342° |
| 2026-05-04 20:06 | 43.56754 | 18.60601 | 36121 ft | 414 kts | 342° |
| 2026-05-04 20:06 | 43.62265 | 18.58274 | 36111 ft | 415 kts | 342° |
| 2026-05-04 20:07 | 43.67782 | 18.55930 | 36120 ft | 415 kts | 342° |
| 2026-05-04 20:07 | 43.73305 | 18.53565 | 36103 ft | 416 kts | 342° |
| 2026-05-04 20:08 | 43.78844 | 18.51197 | 36099 ft | 417 kts | 342° |
| 2026-05-04 20:08 | 43.84352 | 18.48841 | 36108 ft | 418 kts | 342° |
| 2026-05-04 20:09 | 43.89906 | 18.46464 | 36120 ft | 418 kts | 341° |
| 2026-05-04 20:09 | 43.95146 | 18.43082 | 36118 ft | 416 kts | 325° |
| 2026-05-04 20:10 | 43.99743 | 18.38191 | 36112 ft | 417 kts | 322° |
| 2026-05-04 20:10 | 44.04322 | 18.33248 | 36109 ft | 417 kts | 322° |
| 2026-05-04 20:11 | 44.08908 | 18.28304 | 36104 ft | 417 kts | 322° |
| 2026-05-04 20:11 | 44.13498 | 18.23361 | 36097 ft | 417 kts | 322° |
| 2026-05-04 20:12 | 44.18090 | 18.18408 | 36091 ft | 418 kts | 322° |
| 2026-05-04 20:12 | 44.22677 | 18.13441 | 36079 ft | 417 kts | 322° |
| 2026-05-04 20:13 | 44.27264 | 18.08462 | 36075 ft | 418 kts | 322° |
| 2026-05-04 20:13 | 44.31853 | 18.03479 | 36073 ft | 418 kts | 322° |
| 2026-05-04 20:14 | 44.36448 | 17.98486 | 36077 ft | 418 kts | 322° |
| 2026-05-04 20:14 | 44.41033 | 17.93468 | 36083 ft | 419 kts | 322° |
| 2026-05-04 20:15 | 44.45626 | 17.88446 | 36069 ft | 419 kts | 322° |
| 2026-05-04 20:15 | 44.50219 | 17.83416 | 36073 ft | 419 kts | 321° |
| 2026-05-04 20:16 | 44.54806 | 17.78363 | 36070 ft | 419 kts | 321° |
| 2026-05-04 20:16 | 44.59395 | 17.73312 | 36079 ft | 420 kts | 322° |
| 2026-05-04 20:17 | 44.63991 | 17.68253 | 36072 ft | 420 kts | 321° |
| 2026-05-04 20:17 | 44.68553 | 17.63213 | 36062 ft | 420 kts | 321° |
| 2026-05-04 20:18 | 44.73148 | 17.58125 | 36067 ft | 420 kts | 321° |
| 2026-05-04 20:18 | 44.77744 | 17.53033 | 36067 ft | 421 kts | 321° |
| 2026-05-04 20:19 | 44.82335 | 17.47923 | 36073 ft | 421 kts | 321° |
| 2026-05-04 20:19 | 44.86928 | 17.42803 | 36077 ft | 421 kts | 321° |
| 2026-05-04 20:20 | 44.91524 | 17.37680 | 36074 ft | 421 kts | 321° |
| 2026-05-04 20:20 | 44.96119 | 17.32540 | 36081 ft | 421 kts | 321° |
| 2026-05-04 20:21 | 45.00711 | 17.27386 | 36056 ft | 422 kts | 321° |
| 2026-05-04 20:21 | 45.07595 | 17.19641 | 36070 ft | 422 kts | 321° |
| 2026-05-04 20:22 | 45.12193 | 17.14467 | 36068 ft | 422 kts | 321° |
| 2026-05-04 20:22 | 45.16783 | 17.09279 | 36055 ft | 422 kts | 321° |
| 2026-05-04 20:23 | 45.21375 | 17.04077 | 36058 ft | 423 kts | 321° |
| 2026-05-04 20:23 | 45.25969 | 16.98864 | 36057 ft | 423 kts | 321° |
| 2026-05-04 20:24 | 45.30560 | 16.93642 | 36059 ft | 423 kts | 320° |
| 2026-05-04 20:24 | 45.35118 | 16.88446 | 36059 ft | 423 kts | 320° |
| 2026-05-04 20:25 | 45.39712 | 16.83207 | 36060 ft | 424 kts | 320° |
| 2026-05-04 20:25 | 45.44310 | 16.77950 | 36057 ft | 424 kts | 320° |
| 2026-05-04 20:26 | 45.48908 | 16.72674 | 36056 ft | 424 kts | 320° |
| 2026-05-04 20:26 | 45.53505 | 16.67393 | 36057 ft | 425 kts | 320° |
| 2026-05-04 20:27 | 45.58101 | 16.62098 | 36057 ft | 425 kts | 320° |
| 2026-05-04 20:27 | 45.62697 | 16.56791 | 36049 ft | 425 kts | 320° |
| 2026-05-04 20:28 | 45.67294 | 16.51475 | 36050 ft | 425 kts | 320° |
| 2026-05-04 20:28 | 45.71895 | 16.46149 | 36060 ft | 425 kts | 320° |
| 2026-05-04 20:29 | 45.76496 | 16.40822 | 36063 ft | 426 kts | 320° |
| 2026-05-04 20:29 | 45.81091 | 16.35474 | 36070 ft | 426 kts | 320° |
| 2026-05-04 20:30 | 45.85684 | 16.30104 | 36063 ft | 426 kts | 319° |
| 2026-05-04 20:30 | 45.90279 | 16.24732 | 36062 ft | 426 kts | 319° |
| 2026-05-04 20:31 | 45.94879 | 16.19350 | 36062 ft | 426 kts | 319° |
| 2026-05-04 20:31 | 45.99443 | 16.13994 | 36058 ft | 427 kts | 319° |
| 2026-05-04 20:32 | 46.04037 | 16.08583 | 36066 ft | 427 kts | 319° |
| 2026-05-04 20:32 | 46.08626 | 16.03162 | 36053 ft | 427 kts | 319° |
| 2026-05-04 20:33 | 46.13219 | 15.97726 | 36043 ft | 428 kts | 319° |
| 2026-05-04 20:33 | 46.17819 | 15.92279 | 36043 ft | 428 kts | 319° |
| 2026-05-04 20:34 | 46.22419 | 15.86813 | 36039 ft | 428 kts | 319° |
| 2026-05-04 20:34 | 46.27015 | 15.81339 | 36040 ft | 428 kts | 319° |
| 2026-05-04 20:35 | 46.31609 | 15.75857 | 36043 ft | 429 kts | 319° |
| 2026-05-04 20:35 | 46.36207 | 15.70362 | 36041 ft | 429 kts | 319° |
| 2026-05-04 20:36 | 46.40809 | 15.64851 | 36047 ft | 429 kts | 319° |
| 2026-05-04 20:36 | 46.45412 | 15.59336 | 36048 ft | 429 kts | 319° |
| 2026-05-04 20:37 | 46.50010 | 15.53802 | 36046 ft | 429 kts | 319° |
| 2026-05-04 20:37 | 46.54596 | 15.48251 | 36053 ft | 429 kts | 318° |
| 2026-05-04 20:38 | 46.59155 | 15.42722 | 36034 ft | 430 kts | 319° |
| 2026-05-04 20:38 | 46.63755 | 15.37148 | 36034 ft | 431 kts | 319° |
| 2026-05-04 20:39 | 46.68357 | 15.31560 | 36030 ft | 431 kts | 318° |
| 2026-05-04 20:39 | 46.72961 | 15.25960 | 36027 ft | 431 kts | 318° |
| 2026-05-04 20:40 | 46.77570 | 15.20345 | 36032 ft | 432 kts | 318° |
| 2026-05-04 20:40 | 46.82167 | 15.14716 | 36042 ft | 431 kts | 317° |
| 2026-05-04 20:41 | 46.86745 | 15.09093 | 36033 ft | 429 kts | 317° |
| 2026-05-04 20:41 | 46.91314 | 15.03477 | 36037 ft | 429 kts | 317° |
| 2026-05-04 20:42 | 46.95886 | 14.97860 | 36029 ft | 429 kts | 317° |
| 2026-05-04 20:42 | 47.00460 | 14.92216 | 36021 ft | 430 kts | 316° |
| 2026-05-04 20:43 | 47.05034 | 14.86561 | 36042 ft | 431 kts | 318° |
| 2026-05-04 20:43 | 47.09605 | 14.80884 | 36031 ft | 431 kts | 317° |
| 2026-05-04 20:44 | 47.13440 | 14.76109 | 36045 ft | 431 kts | 317° |
| 2026-05-04 20:44 | 47.18016 | 14.70405 | 36043 ft | 432 kts | 317° |
| 2026-05-04 20:45 | 47.22597 | 14.64684 | 36044 ft | 432 kts | 317° |
| 2026-05-04 20:45 | 47.27147 | 14.58995 | 36044 ft | 432 kts | 317° |
| 2026-05-04 20:46 | 47.31733 | 14.53244 | 36042 ft | 433 kts | 317° |
| 2026-05-04 20:46 | 47.36321 | 14.47471 | 36035 ft | 434 kts | 317° |
| 2026-05-04 20:47 | 47.40910 | 14.41691 | 36014 ft | 434 kts | 317° |
| 2026-05-04 20:47 | 47.45503 | 14.35903 | 36016 ft | 434 kts | 317° |
| 2026-05-04 20:48 | 47.50083 | 14.30093 | 35991 ft | 434 kts | 317° |
| 2026-05-04 20:48 | 47.54657 | 14.24274 | 35991 ft | 434 kts | 317° |
| 2026-05-04 20:49 | 47.59232 | 14.18450 | 35987 ft | 434 kts | 317° |
| 2026-05-04 20:49 | 47.63805 | 14.12618 | 35967 ft | 434 kts | 317° |
| 2026-05-04 20:50 | 47.68376 | 14.06778 | 35965 ft | 434 kts | 317° |
| 2026-05-04 20:50 | 47.72948 | 14.00924 | 35945 ft | 434 kts | 317° |
| 2026-05-04 20:51 | 47.77517 | 13.95058 | 35952 ft | 435 kts | 316° |
| 2026-05-04 20:51 | 47.82086 | 13.89164 | 35942 ft | 435 kts | 316° |
| 2026-05-04 20:52 | 47.86659 | 13.83251 | 35939 ft | 435 kts | 316° |
| 2026-05-04 20:52 | 47.91228 | 13.77337 | 35921 ft | 435 kts | 316° |
| 2026-05-04 20:53 | 47.95794 | 13.71418 | 35919 ft | 435 kts | 316° |
| 2026-05-04 20:53 | 48.00355 | 13.65488 | 35916 ft | 435 kts | 316° |
| 2026-05-04 20:54 | 48.04918 | 13.59541 | 35908 ft | 435 kts | 316° |
| 2026-05-04 20:54 | 48.09482 | 13.53582 | 35905 ft | 436 kts | 316° |
| 2026-05-04 20:55 | 48.14016 | 13.47642 | 35904 ft | 436 kts | 316° |
| 2026-05-04 20:55 | 48.18572 | 13.41646 | 35906 ft | 436 kts | 316° |
| 2026-05-04 20:56 | 48.23125 | 13.35643 | 35908 ft | 436 kts | 316° |
| 2026-05-04 20:56 | 48.27684 | 13.29632 | 35902 ft | 437 kts | 316° |
| 2026-05-04 20:57 | 48.32245 | 13.23605 | 35912 ft | 437 kts | 315° |
| 2026-05-04 20:57 | 48.36808 | 13.17561 | 35908 ft | 437 kts | 315° |
| 2026-05-04 20:58 | 48.41370 | 13.11505 | 35905 ft | 437 kts | 315° |
| 2026-05-04 20:58 | 48.45920 | 13.05439 | 35906 ft | 437 kts | 315° |
| 2026-05-04 20:59 | 48.50463 | 12.99353 | 35910 ft | 437 kts | 315° |
| 2026-05-04 20:59 | 48.55499 | 12.94170 | 35904 ft | 443 kts | 332° |
| 2026-05-04 21:00 | 48.61332 | 12.91024 | 35911 ft | 446 kts | 339° |
| 2026-05-04 21:00 | 48.67231 | 12.88060 | 35915 ft | 447 kts | 339° |
| 2026-05-04 21:01 | 48.73089 | 12.85096 | 35923 ft | 447 kts | 339° |
| 2026-05-04 21:01 | 48.78992 | 12.82107 | 35921 ft | 447 kts | 339° |
| 2026-05-04 21:02 | 48.84894 | 12.79106 | 35935 ft | 447 kts | 338° |
| 2026-05-04 21:02 | 48.90799 | 12.76098 | 35943 ft | 447 kts | 338° |
| 2026-05-04 21:03 | 48.96702 | 12.73085 | 35939 ft | 447 kts | 339° |
| 2026-05-04 21:03 | 49.02605 | 12.70082 | 35944 ft | 447 kts | 339° |
| 2026-05-04 21:04 | 49.08506 | 12.67064 | 35949 ft | 447 kts | 338° |
| 2026-05-04 21:04 | 49.14404 | 12.64032 | 35951 ft | 447 kts | 338° |
| 2026-05-04 21:05 | 49.20303 | 12.61002 | 35958 ft | 447 kts | 338° |
| 2026-05-04 21:05 | 49.26203 | 12.57974 | 35957 ft | 447 kts | 338° |
| 2026-05-04 21:06 | 49.32102 | 12.54925 | 35971 ft | 447 kts | 337° |
| 2026-05-04 21:06 | 49.37674 | 12.50887 | 35973 ft | 442 kts | 329° |
| 2026-05-04 21:07 | 49.43124 | 12.46504 | 35971 ft | 442 kts | 329° |
| 2026-05-04 21:07 | 49.48566 | 12.42100 | 35966 ft | 442 kts | 329° |
| 2026-05-04 21:08 | 49.54008 | 12.37687 | 35969 ft | 442 kts | 329° |
| 2026-05-04 21:08 | 49.59243 | 12.33440 | 35975 ft | 442 kts | 329° |
| 2026-05-04 21:09 | 49.64685 | 12.29017 | 35970 ft | 442 kts | 329° |
| 2026-05-04 21:09 | 49.70123 | 12.24586 | 35984 ft | 442 kts | 328° |
| 2026-05-04 21:10 | 49.75561 | 12.20131 | 35971 ft | 443 kts | 328° |
| 2026-05-04 21:10 | 49.81012 | 12.15662 | 36004 ft | 444 kts | 328° |
| 2026-05-04 21:11 | 49.86465 | 12.11185 | 36004 ft | 443 kts | 328° |
| 2026-05-04 21:11 | 49.91915 | 12.06693 | 35993 ft | 443 kts | 328° |
| 2026-05-04 21:12 | 49.97325 | 12.02230 | 35976 ft | 443 kts | 328° |
| 2026-05-04 21:12 | 50.02776 | 11.97724 | 35995 ft | 444 kts | 328° |
| 2026-05-04 21:13 | 50.08225 | 11.93201 | 36017 ft | 444 kts | 328° |
| 2026-05-04 21:13 | 50.13665 | 11.88661 | 36019 ft | 444 kts | 328° |
| 2026-05-04 21:14 | 50.19110 | 11.84115 | 36022 ft | 444 kts | 328° |
| 2026-05-04 21:14 | 50.24544 | 11.79557 | 36020 ft | 443 kts | 327° |
| 2026-05-04 21:15 | 50.29973 | 11.74985 | 36028 ft | 443 kts | 327° |
| 2026-05-04 21:15 | 50.35404 | 11.70410 | 36023 ft | 443 kts | 327° |
| 2026-05-04 21:16 | 50.40829 | 11.65835 | 36013 ft | 442 kts | 327° |
| 2026-05-04 21:16 | 50.46248 | 11.61258 | 36020 ft | 442 kts | 327° |
| 2026-05-04 21:17 | 50.51664 | 11.56675 | 36007 ft | 442 kts | 327° |
| 2026-05-04 21:17 | 50.57257 | 11.52600 | 35994 ft | 448 kts | 339° |
| 2026-05-04 21:18 | 50.63329 | 11.50213 | 35991 ft | 450 kts | 342° |
| 2026-05-04 21:18 | 50.69416 | 11.47877 | 35990 ft | 450 kts | 342° |
| 2026-05-04 21:19 | 50.75503 | 11.45513 | 35987 ft | 450 kts | 342° |
| 2026-05-04 21:19 | 50.81583 | 11.43139 | 35998 ft | 450 kts | 342° |
| 2026-05-04 21:20 | 50.87665 | 11.40757 | 36000 ft | 450 kts | 342° |
| 2026-05-04 21:20 | 50.93742 | 11.38378 | 35990 ft | 450 kts | 342° |
| 2026-05-04 21:21 | 50.99817 | 11.35994 | 35989 ft | 450 kts | 342° |
| 2026-05-04 21:21 | 51.05861 | 11.33626 | 35992 ft | 450 kts | 341° |
| 2026-05-04 21:22 | 51.11946 | 11.31230 | 35988 ft | 450 kts | 341° |
| 2026-05-04 21:22 | 51.18031 | 11.28822 | 35986 ft | 451 kts | 341° |
| 2026-05-04 21:23 | 51.24115 | 11.26413 | 35986 ft | 451 kts | 341° |
| 2026-05-04 21:23 | 51.30199 | 11.23988 | 36004 ft | 450 kts | 341° |
| 2026-05-04 21:24 | 51.36275 | 11.21551 | 35998 ft | 450 kts | 341° |
| 2026-05-04 21:24 | 51.42348 | 11.19118 | 35999 ft | 450 kts | 341° |
| 2026-05-04 21:25 | 51.48425 | 11.16698 | 35999 ft | 450 kts | 341° |
| 2026-05-04 21:25 | 51.54503 | 11.14269 | 36012 ft | 450 kts | 341° |
| 2026-05-04 21:26 | 51.60567 | 11.11825 | 36017 ft | 449 kts | 341° |
| 2026-05-04 21:26 | 51.66631 | 11.09363 | 36004 ft | 449 kts | 341° |
| 2026-05-04 21:27 | 51.72691 | 11.06897 | 36006 ft | 449 kts | 341° |
| 2026-05-04 21:27 | 51.78757 | 11.04434 | 36011 ft | 449 kts | 341° |
| 2026-05-04 21:28 | 51.84815 | 11.01978 | 36018 ft | 448 kts | 341° |
| 2026-05-04 21:28 | 51.90858 | 10.99509 | 36012 ft | 448 kts | 341° |
| 2026-05-04 21:29 | 51.96852 | 10.97050 | 36012 ft | 447 kts | 341° |
| 2026-05-04 21:29 | 52.02918 | 10.94545 | 36018 ft | 447 kts | 341° |
| 2026-05-04 21:30 | 52.08934 | 10.92064 | 36021 ft | 445 kts | 341° |
| 2026-05-04 21:30 | 52.14938 | 10.89593 | 36016 ft | 445 kts | 341° |
| 2026-05-04 21:31 | 52.23884 | 10.85883 | 36027 ft | 444 kts | 341° |
| 2026-05-04 21:32 | 52.28902 | 10.83788 | 36034 ft | 444 kts | 340° |
| 2026-05-04 21:32 | 52.34889 | 10.81279 | 36027 ft | 444 kts | 340° |
| 2026-05-04 21:33 | 52.40878 | 10.78799 | 36021 ft | 444 kts | 340° |
| 2026-05-04 21:33 | 52.46857 | 10.76289 | 36018 ft | 444 kts | 340° |
| 2026-05-04 21:34 | 52.52836 | 10.73769 | 36033 ft | 444 kts | 340° |
| 2026-05-04 21:34 | 52.58822 | 10.71246 | 36016 ft | 444 kts | 340° |
| 2026-05-04 21:35 | 52.64807 | 10.68714 | 36007 ft | 444 kts | 340° |
| 2026-05-04 21:35 | 52.70755 | 10.66191 | 36000 ft | 444 kts | 340° |
| 2026-05-04 21:36 | 52.76740 | 10.63637 | 35998 ft | 444 kts | 340° |
| 2026-05-04 21:36 | 52.82734 | 10.61071 | 36014 ft | 445 kts | 340° |
| 2026-05-04 21:37 | 52.88737 | 10.58506 | 36002 ft | 446 kts | 340° |
| 2026-05-04 21:37 | 52.94744 | 10.55935 | 35994 ft | 446 kts | 340° |
| 2026-05-04 21:38 | 53.00750 | 10.53350 | 35995 ft | 446 kts | 340° |
| 2026-05-04 21:38 | 53.06758 | 10.50756 | 35992 ft | 446 kts | 340° |
| 2026-05-04 21:39 | 53.12757 | 10.48164 | 35990 ft | 446 kts | 340° |
| 2026-05-04 21:39 | 53.18760 | 10.45565 | 35989 ft | 446 kts | 340° |
| 2026-05-04 21:40 | 53.24762 | 10.42952 | 35991 ft | 446 kts | 340° |
| 2026-05-04 21:40 | 53.30767 | 10.40331 | 36017 ft | 446 kts | 340° |
| 2026-05-04 21:41 | 53.36763 | 10.37704 | 36011 ft | 445 kts | 340° |
| 2026-05-04 21:41 | 53.42755 | 10.35072 | 36018 ft | 445 kts | 340° |
| 2026-05-04 21:42 | 53.48740 | 10.32441 | 36015 ft | 445 kts | 340° |
| 2026-05-04 21:42 | 53.54731 | 10.29792 | 36019 ft | 445 kts | 340° |
| 2026-05-04 21:43 | 53.60674 | 10.27150 | 36037 ft | 444 kts | 340° |
| 2026-05-04 21:43 | 53.66634 | 10.24499 | 36035 ft | 442 kts | 340° |
| 2026-05-04 21:44 | 53.72581 | 10.21872 | 36024 ft | 441 kts | 340° |
| 2026-05-04 21:44 | 53.78508 | 10.19224 | 36019 ft | 440 kts | 340° |
| 2026-05-04 21:45 | 53.84421 | 10.16552 | 36039 ft | 439 kts | 340° |
| 2026-05-04 21:45 | 53.90318 | 10.13893 | 36030 ft | 438 kts | 340° |
| 2026-05-04 21:46 | 53.96210 | 10.11248 | 36031 ft | 437 kts | 340° |
| 2026-05-04 21:46 | 54.02100 | 10.08603 | 35943 ft | 439 kts | 340° |
| 2026-05-04 21:46 | 54.05076 | 10.07254 | 34988 ft | 449 kts | 340° |
| 2026-05-04 21:47 | 54.08107 | 10.05867 | 34343 ft | 450 kts | 339° |
| 2026-05-04 21:47 | 54.11115 | 10.04493 | 33837 ft | 446 kts | 339° |
| 2026-05-04 21:47 | 54.14105 | 10.03134 | 33325 ft | 443 kts | 339° |
| 2026-05-04 21:47 | 54.17069 | 10.01792 | 32824 ft | 438 kts | 339° |
| 2026-05-04 21:48 | 54.19999 | 10.00466 | 32324 ft | 434 kts | 339° |
| 2026-05-04 21:48 | 54.22905 | 9.99142 | 31827 ft | 430 kts | 338° |
| 2026-05-04 21:48 | 54.25561 | 9.97925 | 31372 ft | 427 kts | 338° |
| 2026-05-04 21:48 | 54.28416 | 9.96610 | 30887 ft | 423 kts | 338° |
| 2026-05-04 21:49 | 54.31249 | 9.95306 | 30396 ft | 420 kts | 338° |
| 2026-05-04 21:49 | 54.34059 | 9.94016 | 29914 ft | 417 kts | 338° |
| 2026-05-04 21:49 | 54.36847 | 9.92735 | 29415 ft | 412 kts | 337° |
| 2026-05-04 21:49 | 54.39600 | 9.91470 | 28954 ft | 407 kts | 337° |
| 2026-05-04 21:50 | 54.42317 | 9.90217 | 28509 ft | 402 kts | 337° |
| 2026-05-04 21:50 | 54.45002 | 9.88974 | 28070 ft | 398 kts | 337° |
| 2026-05-04 21:50 | 54.47659 | 9.87744 | 27650 ft | 393 kts | 337° |
| 2026-05-04 21:50 | 54.50298 | 9.86563 | 27238 ft | 393 kts | 341° |
| 2026-05-04 21:51 | 54.52980 | 9.85927 | 26838 ft | 395 kts | 347° |
| 2026-05-04 21:51 | 54.55705 | 9.85437 | 26419 ft | 392 kts | 347° |
| 2026-05-04 21:51 | 54.58412 | 9.84947 | 26004 ft | 390 kts | 347° |
| 2026-05-04 21:51 | 54.61100 | 9.84460 | 25610 ft | 388 kts | 347° |
| 2026-05-04 21:52 | 54.63777 | 9.83976 | 25174 ft | 386 kts | 347° |
| 2026-05-04 21:52 | 54.66438 | 9.83494 | 24743 ft | 384 kts | 347° |
| 2026-05-04 21:52 | 54.69084 | 9.83010 | 24318 ft | 381 kts | 347° |
| 2026-05-04 21:52 | 54.71715 | 9.82528 | 23886 ft | 379 kts | 347° |
| 2026-05-04 21:53 | 54.74337 | 9.82053 | 23422 ft | 378 kts | 347° |
| 2026-05-04 21:53 | 54.76940 | 9.81581 | 22957 ft | 374 kts | 347° |
| 2026-05-04 21:53 | 54.79517 | 9.81110 | 22508 ft | 370 kts | 347° |
| 2026-05-04 21:53 | 54.82065 | 9.80642 | 22070 ft | 366 kts | 348° |
| 2026-05-04 21:54 | 54.84588 | 9.80175 | 21652 ft | 363 kts | 348° |
| 2026-05-04 21:54 | 54.87091 | 9.79709 | 21230 ft | 360 kts | 349° |
| 2026-05-04 21:54 | 54.89574 | 9.79246 | 20764 ft | 358 kts | 349° |
| 2026-05-04 21:54 | 54.92038 | 9.78786 | 20322 ft | 355 kts | 349° |
| 2026-05-04 21:55 | 54.94487 | 9.78330 | 19885 ft | 352 kts | 349° |
| 2026-05-04 21:55 | 54.96916 | 9.77882 | 19444 ft | 350 kts | 350° |
| 2026-05-04 21:55 | 54.99330 | 9.77440 | 19010 ft | 348 kts | 350° |
| 2026-05-04 21:55 | 55.01727 | 9.77001 | 18570 ft | 345 kts | 350° |
| 2026-05-04 21:56 | 55.04108 | 9.76568 | 18121 ft | 343 kts | 350° |
| 2026-05-04 21:56 | 55.06469 | 9.76133 | 17666 ft | 340 kts | 350° |
| 2026-05-04 21:56 | 55.08810 | 9.75699 | 17236 ft | 336 kts | 349° |
| 2026-05-04 21:56 | 55.11125 | 9.75264 | 16813 ft | 333 kts | 349° |
| 2026-05-04 21:57 | 55.13421 | 9.74833 | 16388 ft | 330 kts | 349° |
| 2026-05-04 21:57 | 55.15696 | 9.74403 | 15958 ft | 328 kts | 349° |
| 2026-05-04 21:57 | 55.17956 | 9.73979 | 15542 ft | 326 kts | 349° |
| 2026-05-04 21:57 | 55.20202 | 9.73562 | 15120 ft | 324 kts | 349° |
| 2026-05-04 21:58 | 55.22435 | 9.73146 | 14720 ft | 322 kts | 349° |
| 2026-05-04 21:58 | 55.24654 | 9.72731 | 14319 ft | 320 kts | 349° |
| 2026-05-04 21:58 | 55.26862 | 9.72316 | 13916 ft | 318 kts | 349° |
| 2026-05-04 21:58 | 55.29059 | 9.71907 | 13482 ft | 317 kts | 349° |
| 2026-05-04 21:59 | 55.31239 | 9.71497 | 13077 ft | 314 kts | 349° |
| 2026-05-04 21:59 | 55.33400 | 9.71089 | 12682 ft | 311 kts | 349° |
| 2026-05-04 21:59 | 55.35542 | 9.70684 | 12285 ft | 309 kts | 349° |
| 2026-05-04 21:59 | 55.37668 | 9.70286 | 11897 ft | 306 kts | 349° |
| 2026-05-04 22:00 | 55.39780 | 9.69891 | 11510 ft | 304 kts | 349° |
| 2026-05-04 22:00 | 55.41877 | 9.69499 | 11129 ft | 302 kts | 349° |
| 2026-05-04 22:00 | 55.43962 | 9.69102 | 10742 ft | 300 kts | 349° |
| 2026-05-04 22:00 | 55.46033 | 9.68700 | 10360 ft | 299 kts | 349° |
| 2026-05-04 22:01 | 55.48091 | 9.68303 | 10033 ft | 295 kts | 349° |
| 2026-05-04 22:01 | 55.50113 | 9.67920 | 9801 ft | 289 kts | 349° |
| 2026-05-04 22:01 | 55.52116 | 9.67538 | 9391 ft | 292 kts | 349° |
| 2026-05-04 22:01 | 55.54103 | 9.67159 | 9013 ft | 289 kts | 349° |
| 2026-05-04 22:02 | 55.56119 | 9.66776 | 8565 ft | 290 kts | 349° |
| 2026-05-04 22:02 | 55.58108 | 9.66402 | 8218 ft | 286 kts | 349° |
| 2026-05-04 22:02 | 55.60085 | 9.66028 | 7839 ft | 285 kts | 349° |
| 2026-05-04 22:02 | 55.62049 | 9.65651 | 7458 ft | 283 kts | 349° |
| 2026-05-04 22:03 | 55.64003 | 9.65272 | 7085 ft | 282 kts | 350° |
| 2026-05-04 22:03 | 55.65944 | 9.64898 | 6723 ft | 280 kts | 350° |
| 2026-05-04 22:03 | 55.67879 | 9.64529 | 6357 ft | 279 kts | 350° |
| 2026-05-04 22:03 | 55.69802 | 9.64164 | 5966 ft | 277 kts | 351° |
| 2026-05-04 22:04 | 55.71730 | 9.63796 | 5305 ft | 282 kts | 351° |
| 2026-05-04 22:04 | 55.73617 | 9.62992 | 4574 ft | 277 kts | 327° |
| 2026-05-04 22:04 | 55.74879 | 9.60663 | 4296 ft | 254 kts | 294° |
| 2026-05-04 22:04 | 55.75254 | 9.57770 | 4146 ft | 232 kts | 271° |
| 2026-05-04 22:05 | 55.75208 | 9.55057 | 4059 ft | 209 kts | 266° |
| 2026-05-04 22:05 | 55.75126 | 9.52621 | 3975 ft | 184 kts | 266° |
| 2026-05-04 22:05 | 55.75064 | 9.50531 | 3872 ft | 159 kts | 266° |
| 2026-05-04 22:05 | 55.75011 | 9.48660 | 3706 ft | 147 kts | 266° |
| 2026-05-04 22:06 | 55.74961 | 9.46896 | 3552 ft | 140 kts | 267° |
| 2026-05-04 22:06 | 55.74913 | 9.45179 | 3366 ft | 139 kts | 267° |
| 2026-05-04 22:06 | 55.74864 | 9.43476 | 3178 ft | 138 kts | 266° |
| 2026-05-04 22:06 | 55.74816 | 9.41782 | 2993 ft | 137 kts | 268° |
| 2026-05-04 22:07 | 55.74768 | 9.40096 | 2800 ft | 137 kts | 268° |
| 2026-05-04 22:07 | 55.74720 | 9.38416 | 2615 ft | 136 kts | 269° |
| 2026-05-04 22:07 | 55.74672 | 9.36740 | 2430 ft | 136 kts | 269° |
| 2026-05-04 22:07 | 55.74624 | 9.35071 | 2240 ft | 135 kts | 270° |
| 2026-05-04 22:08 | 55.74576 | 9.33410 | 2055 ft | 134 kts | 270° |
| 2026-05-04 22:08 | 55.74527 | 9.31757 | 1868 ft | 134 kts | 270° |
| 2026-05-04 22:08 | 55.74479 | 9.30107 | 1685 ft | 134 kts | 270° |
| 2026-05-04 22:08 | 55.74431 | 9.28482 | 1494 ft | 134 kts | 270° |
| 2026-05-04 22:09 | 55.74383 | 9.26835 | 1308 ft | 134 kts | 270° |
| 2026-05-04 22:09 | 55.74334 | 9.25185 | 1109 ft | 134 kts | 269° |
| 2026-05-04 22:09 | 55.74284 | 9.23526 | 919 ft | 135 kts | 268° |
| 2026-05-04 22:09 | 55.74234 | 9.21861 | 730 ft | 135 kts | 267° |
| 2026-05-04 22:10 | 55.74184 | 9.20192 | 547 ft | 135 kts | 267° |
| 2026-05-04 22:10 | 55.74138 | 9.18520 | 351 ft | 136 kts | 267° |
| 2026-05-04 22:10 | 55.74087 | 9.16872 | 219 ft | 126 kts | 266° |
| 2026-05-04 22:10 | 55.74045 | 9.15564 | 216 ft | 82 kts | 266° |
| 2026-05-04 22:11 | 55.74022 | 9.14849 | 216 ft | 40 kts | 266° |
| 2026-05-04 22:11 | 55.74020 | 9.14541 | 216 ft | 13 kts | 294° |
| 2026-05-04 22:11 | 55.74105 | 9.14484 | 222 ft | 14 kts | 351° |
| 2026-05-04 22:11 | 55.74181 | 9.14485 | 216 ft | 11 kts | 1° |
| 2026-05-04 22:12 | 55.74267 | 9.14477 | 216 ft | 13 kts | 356° |
| 2026-05-04 22:12 | 55.74362 | 9.14466 | 223 ft | 14 kts | 357° |
| 2026-05-04 22:12 | 55.74432 | 9.14505 | 218 ft | 10 kts | 62° |
| 2026-05-04 22:12 | 55.74465 | 9.14609 | 220 ft | 9 kts | 4° |
| 2026-05-04 22:13 | 55.74506 | 9.14618 | 220 ft | 4 kts | 5° |
| 2026-05-04 22:13 | 55.74523 | 9.14618 | 220 ft | 1 kts | 359° |
| 2026-05-04 22:13 | 55.74525 | 9.14618 | 220 ft | 0 kts | 359° |